TimePDT,TemperatureF,Dew PointF,Humidity,Sea Level PressureIn,VisibilityMPH,Wind Direction,Wind SpeedMPH,Gust SpeedMPH,PrecipitationIn,Events,Conditions,WindDirDegrees,DateUTC
12:53 AM,59.0,55.0,87,29.99,9.0,SSE,3.5,-,N/A,,Mostly Cloudy,150,2012-11-02 07:53:00
1:16 AM,57.2,53.6,88,29.99,9.0,East,3.5,-,N/A,,Mostly Cloudy,100,2012-11-02 08:16:00
1:53 AM,59.0,55.0,87,29.99,9.0,Calm,Calm,-,N/A,,Overcast,0,2012-11-02 08:53:00
2:53 AM,60.1,55.0,83,29.99,8.0,Variable,4.6,-,N/A,,Overcast,0,2012-11-02 09:53:00
3:53 AM,59.0,54.0,83,29.98,8.0,East,4.6,-,N/A,,Overcast,90,2012-11-02 10:53:00
4:53 AM,59.0,54.0,83,29.98,8.0,East,5.8,-,N/A,,Overcast,80,2012-11-02 11:53:00
5:53 AM,60.1,54.0,80,29.99,4.0,East,6.9,-,N/A,,Haze,90,2012-11-02 12:53:00
6:53 AM,60.1,53.1,78,29.99,6.0,ESE,9.2,-,N/A,,Haze,110,2012-11-02 13:53:00
6:59 AM,59.0,53.6,82,29.98,6.0,East,9.2,-,N/A,,Haze,100,2012-11-02 13:59:00
7:53 AM,59.0,53.1,81,30.00,5.0,ESE,6.9,-,N/A,,Haze,110,2012-11-02 14:53:00
8:53 AM,61.0,53.1,75,30.01,4.0,ESE,8.1,-,N/A,,Haze,110,2012-11-02 15:53:00
9:53 AM,64.0,52.0,65,30.01,6.0,Variable,5.8,-,N/A,,Haze,0,2012-11-02 16:53:00
10:38 AM,64.4,51.8,64,30.02,6.0,NE,3.5,-,N/A,,Haze,50,2012-11-02 17:38:00
10:53 AM,64.0,52.0,65,30.02,6.0,Calm,Calm,-,N/A,,Haze,0,2012-11-02 17:53:00
11:48 AM,66.2,51.8,60,30.01,7.0,Variable,3.5,-,N/A,,Scattered Clouds,0,2012-11-02 18:48:00
11:53 AM,66.9,52.0,59,30.01,7.0,Variable,3.5,-,N/A,,Scattered Clouds,0,2012-11-02 18:53:00
12:53 PM,66.9,53.1,61,29.98,8.0,West,6.9,-,N/A,,Scattered Clouds,260,2012-11-02 19:53:00
1:53 PM,66.9,53.1,61,29.95,10.0,West,6.9,-,N/A,,Scattered Clouds,270,2012-11-02 20:53:00
2:53 PM,68.0,53.1,59,29.93,10.0,West,8.1,-,N/A,,Scattered Clouds,260,2012-11-02 21:53:00
3:53 PM,66.9,53.1,61,29.94,10.0,West,10.4,-,N/A,,Scattered Clouds,270,2012-11-02 22:53:00
4:53 PM,64.9,55.0,70,29.94,10.0,West,12.7,-,N/A,,Scattered Clouds,270,2012-11-02 23:53:00
5:53 PM,64.0,55.9,75,29.94,10.0,West,11.5,-,N/A,,Scattered Clouds,260,2012-11-03 00:53:00
6:53 PM,63.0,57.0,81,29.95,9.0,West,9.2,-,N/A,,Partly Cloudy,270,2012-11-03 01:53:00
7:53 PM,63.0,57.0,81,29.96,10.0,WSW,5.8,-,N/A,,Partly Cloudy,250,2012-11-03 02:53:00
8:53 PM,62.1,57.0,84,29.97,10.0,SW,4.6,-,N/A,,Scattered Clouds,230,2012-11-03 03:53:00
9:53 PM,62.1,57.0,84,29.98,10.0,Calm,Calm,-,N/A,,Scattered Clouds,0,2012-11-03 04:53:00
10:53 PM,62.1,57.0,84,29.99,10.0,Calm,Calm,-,N/A,,Mostly Cloudy,0,2012-11-03 05:53:00
11:53 PM,62.1,57.0,84,29.98,10.0,Variable,3.5,-,N/A,,Mostly Cloudy,0,2012-11-03 06:53:00